Hauptseite
METAR-TAF:

METAR-TAF

Flughäfen :

Toblach, Italien

Breite: 46-44N, Länge: 012-13E, Höhe: 1222 m

Beobachtung

Neuester Wetterbericht von vor 31 Minuten, um 10:55 UTC
Windstille
Temperatur 3°C
Luftfeuchtigkeit 87%
Luftdruck 1020 hPa
Sichtweite 10 km oder mehr
Durchbrochene Bewölkung in der Höhe von 2500 ft

METAR: LIVD 231055Z 00000KT 9999 BKN025 03/01 Q1020 RMK BKN VIS MIN 9999

Zeit: 12:26 (11:26 UTC)


TAF: fehlend

Wetterbeobachtungen und Prognosen von mehr als 4000 Flughäfen (METAR und TAF Bericht).

Die verfügbaren Stationen werden durch gelbe und rote Markierungen auf der Karte dargestellt.

Führen Sie die Maus auf sie, um den Namen der Station zu sehen.

Darauf klicken, um die Beobachtung von Wetterbeobachtungen und Prognosen zu sehen.

Um die Karte zu ändern : klicken Sie auf den grünen Tasten mit einem schwarzen Kreuz Zum Vergrößern, auf den grünen Button mit einem Gedankenstrich zu verkleinern, oder auf die grünen Pfeile für benachbarte Karten.


METAR-TAF: